Highland Mills, New York
Current Conditions -  °F | °C
As of 2:45 PM on Friday 24 Oct 2014 (Local Time) from KSWF Reporting Station
Broken Clouds Broken Clouds  
Wind Chill: 57°   Ceiling: 3000
Heat Index: 57°   Visibility: 20mi
Dew Point: 46°   Wind: 12mph
Humidity: 67%   Direction: 350°N
Pressure: 29.79"   Gusts: NA
Location:  41.35°N, 74.13°W
Report Text: KSWF 241845Z 35010KT 20SM BKN030 14/08 A2979
Loading
Personal Weather Stations






























Interactive Weather Map
Tropical Storm Tracking
New forecast layout! Learn more

10-Day Weather Forecast

Advertisements
Track Severe Weather on mobile